Terminal Aerodrome Forecast
Issued by NWS

Home | Current Version | Previous Version | Text Only | Print | Product List | Glossary On
Versions: 1 2 3 4 5 6 7 8 9 10 11 12 13 14 15 16 17 18 19 20 21 22 23 24 25 26 27 28
000
FTUS45 KREV 212300
TAFTVL
TAF
KTVL 212340Z 2200/2224 17008KT P6SM SCT060 BKN080
     FM220300 VRB03KT P6SM FEW060 SCT090 BKN180
     FM221900 19006KT 5SM HZ FEW060 SCT200=

USA.gov is the U.S. government's official web portal to all federal, state and local government web resources and services.